createdAt,value
2017-04-22T00:00:42.356Z,21.97
2017-04-22T00:01:40.264Z,22.00
2017-04-22T00:02:38.121Z,22.49
2017-04-22T00:03:35.979Z,21.27
2017-04-22T00:04:33.876Z,22.16
2017-04-22T00:05:31.833Z,22.09
2017-04-22T00:06:29.787Z,22.07
2017-04-22T00:07:27.744Z,22.21
2017-04-22T00:08:26.459Z,22.33
2017-04-22T00:09:24.353Z,21.43
2017-04-22T00:10:22.260Z,23.30
2017-04-22T00:11:20.195Z,22.29
2017-04-22T00:12:18.166Z,23.69
2017-04-22T00:13:16.029Z,20.49
2017-04-22T00:14:14.223Z,21.09
2017-04-22T00:15:12.185Z,23.39
2017-04-22T00:16:10.031Z,22.63
2017-04-22T00:17:07.931Z,23.41
2017-04-22T00:18:05.835Z,23.86
2017-04-22T00:19:03.768Z,23.87
2017-04-22T00:20:01.634Z,23.87
2017-04-22T00:20:59.525Z,25.09
2017-04-22T00:21:57.370Z,23.20
2017-04-22T00:22:55.296Z,23.60
2017-04-22T00:23:53.178Z,23.49
2017-04-22T00:24:51.010Z,23.43
2017-04-22T00:25:48.904Z,23.74
2017-04-22T00:26:46.864Z,24.34
2017-04-22T00:27:44.724Z,22.70
2017-04-22T00:28:42.625Z,24.53
2017-04-22T00:29:40.726Z,23.63
2017-04-22T00:30:38.688Z,25.91
2017-04-22T00:31:36.760Z,24.64
2017-04-22T00:32:34.662Z,25.47
2017-04-22T00:33:32.576Z,26.19
2017-04-22T00:34:30.488Z,24.47
2017-04-22T00:35:28.437Z,26.54
2017-04-22T00:36:26.300Z,26.19
2017-04-22T00:37:24.167Z,25.03
2017-04-22T00:38:22.074Z,27.56
2017-04-22T00:39:20.193Z,26.03
2017-04-22T00:40:18.401Z,25.03
2017-04-22T00:41:16.408Z,26.99
2017-04-22T00:42:14.341Z,27.23
2017-04-22T00:43:12.301Z,27.53
2017-04-22T00:44:10.287Z,27.60
2017-04-22T00:45:08.172Z,25.04
2017-04-22T00:46:06.236Z,27.21
2017-04-22T00:47:04.110Z,27.84
2017-04-22T00:48:02.044Z,25.76
2017-04-22T00:48:59.903Z,27.60
2017-04-22T00:49:57.788Z,26.30
2017-04-22T00:50:55.724Z,25.21
2017-04-22T00:51:53.597Z,28.51
2017-04-22T00:52:51.448Z,26.07
2017-04-22T00:53:49.303Z,26.91
2017-04-22T00:54:47.276Z,27.46
2017-04-22T00:55:45.125Z,28.23
2017-04-22T00:56:42.991Z,26.47
2017-04-22T00:57:40.881Z,26.84
2017-04-22T00:58:38.825Z,27.20
2017-04-22T00:59:36.703Z,25.59
2017-04-22T01:00:34.687Z,26.71
2017-04-22T01:01:32.892Z,26.87
2017-04-22T01:02:30.855Z,27.67
2017-04-22T01:03:28.963Z,27.27
2017-04-22T01:04:26.831Z,29.67
2017-04-22T01:05:24.689Z,27.40
2017-04-22T01:06:22.539Z,27.94
2017-04-22T01:07:20.510Z,28.59
2017-04-22T01:08:18.406Z,29.61
2017-04-22T01:09:16.297Z,28.96
2017-04-22T01:10:14.331Z,29.07
2017-04-22T01:11:12.397Z,28.21
2017-04-22T01:12:10.345Z,27.83
2017-04-22T01:13:08.386Z,26.21
2017-04-22T01:14:06.343Z,26.71
2017-04-22T01:15:04.404Z,29.04
2017-04-22T01:16:02.294Z,30.80
2017-04-22T01:17:00.231Z,28.31
2017-04-22T01:17:58.105Z,30.90
2017-04-22T01:18:56.015Z,31.14
2017-04-22T01:19:53.908Z,31.83
2017-04-22T01:20:51.852Z,29.79
2017-04-22T01:21:49.718Z,29.24
2017-04-22T01:22:47.640Z,31.06
2017-04-22T01:23:45.539Z,31.01
2017-04-22T01:24:43.431Z,31.93
2017-04-22T01:25:41.285Z,30.16
2017-04-22T01:26:39.148Z,29.84
2017-04-22T01:27:37.036Z,30.87
2017-04-22T01:28:34.905Z,33.30
2017-04-22T01:29:32.803Z,31.17
2017-04-22T01:30:30.784Z,32.00
2017-04-22T01:31:28.754Z,31.70
2017-04-22T01:32:26.627Z,31.70
2017-04-22T01:33:24.914Z,32.16
2017-04-22T01:34:22.827Z,31.96
2017-04-22T01:35:20.778Z,33.19
2017-04-22T01:36:18.643Z,34.19
2017-04-22T01:37:16.496Z,31.07
2017-04-22T01:38:14.384Z,35.00
2017-04-22T01:39:12.308Z,32.73
2017-04-22T01:40:10.272Z,35.54
2017-04-22T01:41:08.172Z,34.41
2017-04-22T01:42:06.133Z,34.86
2017-04-22T01:43:04.024Z,33.89
2017-04-22T01:44:01.943Z,32.70
2017-04-22T01:44:59.851Z,36.34
2017-04-22T01:45:57.965Z,37.41
2017-04-22T01:46:55.897Z,35.86
2017-04-22T01:47:53.799Z,34.27
2017-04-22T01:48:52.055Z,35.57
2017-04-22T01:49:49.926Z,33.49
2017-04-22T01:50:48.077Z,35.84
2017-04-22T01:51:45.983Z,33.90
2017-04-22T01:52:43.903Z,31.86
2017-04-22T01:53:41.821Z,37.20
2017-04-22T01:54:39.658Z,35.64
2017-04-22T01:55:37.568Z,31.96
2017-04-22T01:56:35.451Z,32.33
2017-04-22T01:57:33.423Z,36.29
2017-04-22T01:58:31.272Z,35.91
2017-04-22T01:59:29.144Z,37.24
2017-04-22T02:00:27.089Z,40.44
2017-04-22T02:01:24.970Z,38.63
2017-04-22T02:02:22.896Z,35.66
2017-04-22T02:03:20.799Z,40.01
2017-04-22T02:04:18.760Z,39.07
2017-04-22T02:05:16.675Z,38.29
2017-04-22T02:06:14.892Z,38.50
2017-04-22T02:07:12.747Z,36.76
2017-04-22T02:08:10.668Z,39.14
2017-04-22T02:09:08.529Z,41.06
2017-04-22T02:10:06.454Z,40.03
2017-04-22T02:11:04.412Z,44.60
2017-04-22T02:12:02.795Z,41.47
2017-04-22T02:13:01.080Z,43.97
2017-04-22T02:13:59.055Z,45.57
2017-04-22T02:14:56.972Z,44.93
2017-04-22T02:15:54.834Z,41.46
2017-04-22T02:16:52.691Z,43.84
2017-04-22T02:17:50.567Z,44.57
2017-04-22T02:18:48.432Z,46.69
2017-04-22T02:19:46.324Z,44.49
2017-04-22T02:20:44.245Z,45.44
2017-04-22T02:21:42.185Z,44.04
2017-04-22T02:22:40.092Z,47.36
2017-04-22T02:23:37.937Z,45.83
2017-04-22T02:24:35.844Z,43.20
2017-04-22T02:25:33.932Z,43.31
2017-04-22T02:26:31.799Z,44.91
2017-04-22T02:27:29.722Z,44.21
2017-04-22T02:28:27.595Z,42.41
2017-04-22T02:29:25.473Z,41.50
2017-04-22T02:30:23.389Z,48.83
2017-04-22T02:31:21.351Z,45.44
2017-04-22T02:32:19.232Z,44.33
2017-04-22T02:33:17.085Z,47.61
2017-04-22T02:34:15.310Z,48.16
2017-04-22T02:35:13.184Z,46.21
2017-04-22T02:36:11.100Z,49.29
2017-04-22T02:37:09.160Z,50.23
2017-04-22T02:38:07.065Z,51.24
2017-04-22T02:39:05.087Z,49.27
2017-04-22T02:40:02.958Z,52.49
2017-04-22T02:41:01.155Z,53.81
2017-04-22T02:41:59.308Z,36.50
2017-04-22T02:42:57.256Z,18.53
2017-04-22T02:43:55.221Z,14.73
2017-04-22T02:44:53.163Z,8.47
2017-04-22T02:45:51.130Z,9.87
2017-04-22T02:46:49.132Z,7.77
2017-04-22T02:47:47.100Z,3.54
2017-04-22T02:48:45.197Z,2.76
2017-04-22T02:49:43.191Z,2.21
2017-04-22T02:50:41.174Z,2.33
2017-04-22T02:51:39.475Z,2.47
2017-04-22T02:52:37.468Z,2.21
2017-04-22T02:53:35.556Z,2.03
2017-04-22T02:54:33.503Z,2.40
2017-04-22T02:55:31.518Z,1.89
2017-04-22T02:56:29.631Z,1.60
2017-04-22T02:57:27.568Z,1.40
2017-04-22T02:58:25.521Z,1.40
2017-04-22T02:59:23.455Z,1.27
2017-04-22T03:00:21.866Z,1.59
2017-04-22T03:01:19.808Z,1.63
2017-04-22T03:02:17.849Z,1.57
2017-04-22T03:03:15.744Z,1.31
2017-04-22T03:04:13.745Z,1.53
2017-04-22T03:05:11.736Z,1.60
2017-04-22T03:06:09.839Z,1.89
2017-04-22T03:07:07.800Z,1.43
2017-04-22T03:08:05.799Z,2.00
2017-04-22T03:09:04.271Z,1.44
2017-04-22T03:10:02.239Z,1.46
2017-04-22T03:11:00.197Z,2.10
2017-04-22T03:11:58.108Z,2.19
2017-04-22T03:12:56.020Z,1.84
2017-04-22T03:13:53.970Z,2.07
2017-04-22T03:14:51.930Z,1.93
2017-04-22T03:15:50.048Z,1.27
2017-04-22T03:16:48.069Z,1.94
2017-04-22T03:17:46.101Z,1.74
2017-04-22T03:18:44.009Z,1.77
2017-04-22T03:19:42.010Z,1.90
2017-04-22T03:20:40.135Z,1.69
2017-04-22T03:21:38.103Z,1.53
2017-04-22T03:22:36.028Z,1.90
2017-04-22T03:23:33.940Z,1.87
2017-04-22T03:24:31.876Z,2.04
2017-04-22T03:25:29.840Z,1.80
2017-04-22T03:26:27.864Z,1.74
2017-04-22T03:27:25.789Z,1.57
2017-04-22T03:28:23.744Z,1.79
2017-04-22T03:29:21.695Z,2.23
2017-04-22T03:30:19.684Z,1.43
2017-04-22T03:31:17.761Z,1.69
2017-04-22T03:32:15.726Z,1.96
2017-04-22T03:33:14.299Z,1.16
2017-04-22T03:34:12.131Z,1.27
2017-04-22T03:35:09.943Z,1.31
2017-04-22T03:36:11.646Z,1.61
2017-04-22T03:37:09.618Z,1.49
2017-04-22T03:38:07.616Z,2.04
2017-04-22T03:39:05.776Z,2.00
2017-04-22T03:40:03.716Z,1.41
2017-04-22T03:41:01.549Z,2.03
2017-04-22T03:41:59.391Z,1.71
2017-04-22T03:42:57.268Z,1.76
2017-04-22T03:43:55.165Z,1.60
2017-04-22T03:44:53.003Z,1.71
2017-04-22T03:45:50.868Z,1.50
2017-04-22T03:46:48.735Z,1.53
2017-04-22T03:47:46.541Z,1.67
2017-04-22T03:48:44.392Z,2.11
2017-04-22T03:49:42.211Z,1.86
2017-04-22T03:50:41.177Z,1.57
2017-04-22T03:51:40.385Z,1.91
2017-04-22T03:52:38.948Z,1.51
2017-04-22T03:53:36.840Z,2.46
2017-04-22T03:54:34.712Z,2.09
2017-04-22T03:55:33.894Z,1.86
2017-04-22T03:56:36.388Z,2.07
2017-04-22T03:57:36.528Z,1.96
2017-04-22T03:58:39.888Z,2.20
2017-04-22T03:59:38.035Z,1.67
2017-04-22T04:00:36.012Z,2.43
2017-04-22T04:01:34.274Z,1.86
2017-04-22T04:02:32.456Z,1.97
2017-04-22T04:03:30.331Z,1.89
2017-04-22T04:04:28.232Z,2.03
2017-04-22T04:05:28.315Z,2.14
2017-04-22T04:06:31.068Z,1.90
2017-04-22T04:07:30.961Z,2.19
2017-04-22T04:08:29.169Z,2.30
2017-04-22T04:09:27.111Z,1.89
2017-04-22T04:10:28.813Z,2.16
2017-04-22T04:11:28.160Z,1.69
2017-04-22T04:12:25.973Z,3.03
2017-04-22T04:13:28.806Z,1.71
2017-04-22T04:14:28.603Z,2.06
2017-04-22T04:15:29.360Z,2.64
2017-04-22T04:16:27.231Z,2.06
2017-04-22T04:17:25.272Z,2.36
2017-04-22T04:18:23.485Z,2.50
2017-04-22T04:19:22.176Z,2.61
2017-04-22T04:20:20.675Z,2.51
2017-04-22T04:21:19.402Z,2.17
2017-04-22T04:22:17.272Z,3.21
2017-04-22T04:23:15.218Z,2.41
2017-04-22T04:24:13.259Z,2.43
2017-04-22T04:25:11.106Z,2.40
2017-04-22T04:26:08.964Z,2.81
2017-04-22T04:27:06.911Z,3.01
2017-04-22T04:28:04.791Z,2.59
2017-04-22T04:29:03.239Z,2.54
2017-04-22T04:30:01.147Z,2.44
2017-04-22T04:30:59.059Z,2.96
2017-04-22T04:31:56.916Z,2.71
2017-04-22T04:32:54.796Z,3.86
2017-04-22T04:33:52.631Z,3.01
2017-04-22T04:34:50.459Z,3.34
2017-04-22T04:35:48.252Z,3.83
2017-04-22T04:36:46.091Z,2.81
2017-04-22T04:37:43.968Z,3.73
2017-04-22T04:38:41.819Z,3.20
2017-04-22T04:39:39.740Z,3.13
2017-04-22T04:40:37.563Z,2.93
2017-04-22T04:41:35.577Z,3.46
2017-04-22T04:42:33.684Z,3.54
2017-04-22T04:43:31.528Z,3.31
2017-04-22T04:44:29.360Z,2.90
2017-04-22T04:45:27.202Z,2.76
2017-04-22T04:46:25.039Z,3.79
2017-04-22T04:47:22.872Z,3.47
2017-04-22T04:48:21.033Z,4.07
2017-04-22T04:49:18.922Z,3.59
2017-04-22T04:50:16.743Z,3.81
2017-04-22T04:51:14.625Z,3.86
2017-04-22T04:52:12.464Z,3.76
2017-04-22T04:53:10.303Z,2.97
2017-04-22T04:54:08.172Z,3.14
2017-04-22T04:55:06.012Z,3.03
2017-04-22T04:56:03.848Z,3.41
2017-04-22T04:57:01.675Z,3.77
2017-04-22T04:57:59.581Z,2.80
2017-04-22T04:58:57.480Z,2.73
2017-04-22T04:59:55.349Z,3.21
2017-04-22T05:00:53.191Z,3.07
2017-04-22T05:01:51.140Z,3.00
2017-04-22T05:02:49.008Z,3.63
2017-04-22T05:03:46.824Z,2.99
2017-04-22T05:04:44.791Z,4.13
2017-04-22T05:05:42.641Z,3.06
2017-04-22T05:06:40.503Z,3.56
2017-04-22T05:07:38.363Z,3.30
2017-04-22T05:08:36.275Z,3.29
2017-04-22T05:09:34.137Z,3.96
2017-04-22T05:10:31.982Z,3.00
2017-04-22T05:11:29.928Z,3.67
2017-04-22T05:12:27.748Z,3.33
2017-04-22T05:13:25.699Z,4.29
2017-04-22T05:14:23.552Z,3.21
2017-04-22T05:15:21.507Z,3.47
2017-04-22T05:16:19.378Z,2.84
2017-04-22T05:17:17.284Z,2.80
2017-04-22T05:18:15.233Z,3.27
2017-04-22T05:19:13.060Z,2.61
2017-04-22T05:20:10.915Z,2.76
2017-04-22T05:21:08.781Z,2.84
2017-04-22T05:22:06.761Z,3.24
2017-04-22T05:23:04.595Z,3.23
2017-04-22T05:24:02.414Z,3.23
2017-04-22T05:25:00.299Z,3.00
2017-04-22T05:25:58.138Z,2.96
2017-04-22T05:26:56.128Z,4.13
2017-04-22T05:27:53.957Z,3.21
2017-04-22T05:28:51.923Z,3.96
2017-04-22T05:29:49.743Z,2.73
2017-04-22T05:30:47.625Z,3.54
2017-04-22T05:31:45.521Z,3.33
2017-04-22T05:32:43.355Z,3.31
2017-04-22T05:33:41.237Z,3.74
2017-04-22T05:34:39.079Z,3.93
2017-04-22T05:35:37.028Z,4.44
2017-04-22T05:36:34.881Z,3.03
2017-04-22T05:37:32.730Z,4.01
2017-04-22T05:38:30.639Z,3.30
2017-04-22T05:39:28.503Z,3.59
2017-04-22T05:40:26.472Z,3.76
2017-04-22T05:41:24.363Z,4.63
2017-04-22T05:42:22.244Z,4.87
2017-04-22T05:43:20.068Z,4.63
2017-04-22T05:44:17.934Z,5.26
2017-04-22T05:45:15.867Z,5.90
2017-04-22T05:46:13.809Z,4.69
2017-04-22T05:47:11.643Z,4.80
2017-04-22T05:48:09.405Z,4.97
2017-04-22T05:49:07.391Z,5.04
2017-04-22T05:50:05.236Z,5.14
2017-04-22T05:51:03.144Z,4.59
2017-04-22T05:52:01.031Z,5.10
2017-04-22T05:52:58.995Z,4.31
2017-04-22T05:53:56.839Z,4.66
2017-04-22T05:54:54.671Z,6.16
2017-04-22T05:55:52.548Z,5.17
2017-04-22T05:56:50.396Z,5.33
2017-04-22T05:57:48.197Z,5.46
2017-04-22T05:58:46.148Z,5.27
2017-04-22T05:59:43.989Z,5.56
2017-04-22T06:00:42.052Z,5.56
2017-04-22T06:01:39.834Z,5.13
2017-04-22T06:02:37.772Z,4.79
2017-04-22T06:03:35.616Z,5.80
2017-04-22T06:04:33.503Z,5.94
2017-04-22T06:05:31.373Z,5.93
2017-04-22T06:06:29.240Z,5.40
2017-04-22T06:07:27.134Z,5.80
2017-04-22T06:08:24.981Z,5.34
2017-04-22T06:09:22.909Z,6.24
2017-04-22T06:10:20.763Z,6.93
2017-04-22T06:11:18.620Z,5.49
2017-04-22T06:12:16.540Z,5.90
2017-04-22T06:13:14.412Z,6.31
2017-04-22T06:14:12.265Z,4.76
2017-04-22T06:15:10.120Z,5.67
2017-04-22T06:16:08.006Z,4.61
2017-04-22T06:17:05.869Z,5.71
2017-04-22T06:18:03.723Z,4.90
2017-04-22T06:19:01.553Z,5.31
2017-04-22T06:19:59.435Z,5.23
2017-04-22T06:20:57.307Z,5.97
2017-04-22T06:21:55.205Z,5.70
2017-04-22T06:22:53.019Z,5.50
2017-04-22T06:23:51.034Z,6.00
2017-04-22T06:24:48.991Z,5.94
2017-04-22T06:25:46.818Z,5.07
2017-04-22T06:26:44.677Z,4.33
2017-04-22T06:27:42.543Z,5.76
2017-04-22T06:28:40.480Z,5.77
2017-04-22T06:29:38.317Z,5.40
2017-04-22T06:30:36.227Z,4.99
2017-04-22T06:31:34.112Z,5.16
2017-04-22T06:32:31.966Z,5.10
2017-04-22T06:33:29.829Z,5.24
2017-04-22T06:34:27.691Z,5.87
2017-04-22T06:35:25.708Z,5.16
2017-04-22T06:36:24.204Z,5.97
2017-04-22T06:37:22.107Z,6.21
2017-04-22T06:38:19.973Z,5.99
2017-04-22T06:39:17.840Z,4.81
2017-04-22T06:40:15.719Z,5.41
2017-04-22T06:41:13.548Z,5.61
2017-04-22T06:42:11.520Z,4.59
2017-04-22T06:43:09.381Z,5.00
2017-04-22T06:44:07.288Z,5.00
2017-04-22T06:45:05.120Z,4.76
2017-04-22T06:46:02.976Z,5.07
2017-04-22T06:47:00.800Z,4.71
2017-04-22T06:47:58.629Z,5.09
2017-04-22T06:48:56.556Z,5.54
2017-04-22T06:49:54.405Z,5.30
2017-04-22T06:50:52.345Z,4.73
2017-04-22T06:51:50.221Z,5.36
2017-04-22T06:52:48.160Z,5.07
2017-04-22T06:53:46.020Z,4.53
2017-04-22T06:54:43.876Z,5.09
2017-04-22T06:55:41.763Z,4.40
2017-04-22T06:56:39.624Z,4.86
2017-04-22T06:57:37.633Z,5.27
2017-04-22T06:58:35.556Z,4.44
2017-04-22T06:59:33.391Z,4.01
2017-04-22T07:00:31.328Z,4.50
2017-04-22T07:01:29.203Z,5.17
2017-04-22T07:02:43.116Z,4.46
2017-04-22T07:03:41.210Z,4.44
2017-04-22T07:04:39.092Z,4.01
2017-04-22T07:05:37.184Z,4.94
2017-04-22T07:06:35.145Z,4.89
2017-04-22T07:07:32.976Z,4.53
2017-04-22T07:08:30.804Z,5.29
2017-04-22T07:09:28.627Z,5.76
2017-04-22T07:10:26.482Z,5.64
2017-04-22T07:11:24.383Z,6.44
2017-04-22T07:12:22.232Z,7.17
2017-04-22T07:13:20.061Z,5.49
2017-04-22T07:14:18.019Z,6.73
2017-04-22T07:15:15.993Z,7.84
2017-04-22T07:16:13.826Z,7.63
2017-04-22T07:17:11.689Z,8.63
2017-04-22T07:18:09.483Z,7.81
2017-04-22T07:19:07.439Z,7.61
2017-04-22T07:20:05.320Z,7.29
2017-04-22T07:21:03.281Z,7.31
2017-04-22T07:22:01.130Z,7.94
2017-04-22T07:22:59.041Z,7.70
2017-04-22T07:23:56.932Z,8.16
2017-04-22T07:24:54.800Z,7.31
2017-04-22T07:25:52.714Z,6.63
2017-04-22T07:26:50.640Z,8.17
2017-04-22T07:27:48.558Z,7.04
2017-04-22T07:28:46.447Z,7.36
2017-04-22T07:29:44.376Z,7.80
2017-04-22T07:30:42.252Z,7.94
2017-04-22T07:31:40.104Z,7.44
2017-04-22T07:32:37.979Z,7.79
2017-04-22T07:33:35.806Z,6.17
2017-04-22T07:34:33.724Z,6.96
2017-04-22T07:35:31.556Z,7.57
2017-04-22T07:36:29.379Z,7.17
2017-04-22T07:37:27.227Z,6.86
2017-04-22T07:38:25.073Z,7.03
2017-04-22T07:39:22.908Z,5.83
2017-04-22T07:40:20.776Z,5.36
2017-04-22T07:41:18.628Z,5.56
2017-04-22T07:42:16.463Z,5.17
2017-04-22T07:43:14.304Z,6.57
2017-04-22T07:44:12.263Z,6.69
2017-04-22T07:45:10.426Z,4.96
2017-04-22T07:46:08.260Z,5.07
2017-04-22T07:47:06.124Z,5.77
2017-04-22T07:48:03.947Z,4.34
2017-04-22T07:49:01.797Z,4.91
2017-04-22T07:49:59.690Z,5.03
2017-04-22T07:50:57.563Z,4.19
2017-04-22T07:51:55.396Z,4.14
2017-04-22T07:52:53.228Z,4.13
2017-04-22T07:53:51.088Z,5.14
2017-04-22T07:54:49.144Z,3.43
2017-04-22T07:55:46.991Z,4.31
2017-04-22T07:56:44.857Z,4.30
2017-04-22T07:57:43.809Z,5.17
2017-04-22T07:58:41.661Z,3.76
2017-04-22T07:59:39.523Z,4.50
2017-04-22T08:00:37.383Z,3.53
2017-04-22T08:01:35.247Z,3.81
2017-04-22T08:02:33.241Z,3.99
2017-04-22T08:03:31.161Z,3.84
2017-04-22T08:04:28.987Z,3.73
2017-04-22T08:05:26.811Z,3.94
2017-04-22T08:06:24.686Z,4.31
2017-04-22T08:07:22.511Z,3.43
2017-04-22T08:08:20.393Z,4.00
2017-04-22T08:09:18.293Z,3.07
2017-04-22T08:10:16.184Z,3.19
2017-04-22T08:11:14.053Z,3.36
2017-04-22T08:12:11.940Z,3.94
2017-04-22T08:13:09.808Z,3.96
2017-04-22T08:14:07.650Z,4.54
2017-04-22T08:15:05.594Z,3.06
2017-04-22T08:16:03.432Z,3.61
2017-04-22T08:17:01.395Z,5.11
2017-04-22T08:17:59.289Z,3.91
2017-04-22T08:18:57.110Z,4.11
2017-04-22T08:19:54.999Z,3.46
2017-04-22T08:20:52.851Z,3.97
2017-04-22T08:21:50.740Z,4.19
2017-04-22T08:22:48.601Z,3.71
2017-04-22T08:23:46.584Z,4.47
2017-04-22T08:24:44.403Z,3.34
2017-04-22T08:25:42.307Z,3.66
2017-04-22T08:26:40.159Z,4.49
2017-04-22T08:27:38.423Z,3.47
2017-04-22T08:28:36.248Z,3.50
2017-04-22T08:29:34.056Z,3.79
2017-04-22T08:30:31.860Z,3.14
2017-04-22T08:31:29.704Z,3.94
2017-04-22T08:32:27.583Z,4.06
2017-04-22T08:33:25.376Z,3.33
2017-04-22T08:34:23.173Z,2.54
2017-04-22T08:35:21.160Z,3.06
2017-04-22T08:36:18.955Z,2.99
2017-04-22T08:37:16.976Z,3.90
2017-04-22T08:38:14.867Z,3.01
2017-04-22T08:39:12.670Z,2.40
2017-04-22T08:40:10.581Z,3.24
2017-04-22T08:41:08.391Z,3.64
2017-04-22T08:42:06.395Z,3.30
2017-04-22T08:43:04.191Z,3.61
2017-04-22T08:44:02.117Z,2.80
2017-04-22T08:44:59.974Z,3.77
2017-04-22T08:45:57.828Z,2.89
2017-04-22T08:46:55.677Z,3.07
2017-04-22T08:47:53.512Z,3.66
2017-04-22T08:48:51.561Z,3.24
2017-04-22T08:49:49.379Z,3.39
2017-04-22T08:50:55.781Z,4.11
2017-04-22T08:51:45.135Z,3.90
2017-04-22T08:52:42.933Z,3.09
2017-04-22T08:53:40.985Z,3.39
2017-04-22T08:54:38.783Z,2.80
2017-04-22T08:55:36.731Z,3.74
2017-04-22T08:56:34.552Z,3.16
2017-04-22T08:57:32.493Z,2.40
2017-04-22T08:58:30.336Z,3.00
2017-04-22T08:59:28.251Z,2.40
2017-04-22T09:00:26.992Z,2.50
2017-04-22T09:01:24.848Z,3.07
2017-04-22T09:02:22.681Z,2.39
2017-04-22T09:03:20.528Z,2.33
2017-04-22T09:04:18.379Z,2.43
2017-04-22T09:05:16.241Z,2.91
2017-04-22T09:06:14.115Z,2.96
2017-04-22T09:07:12.041Z,3.03
2017-04-22T09:08:10.276Z,2.31
2017-04-22T09:09:08.127Z,2.71
2017-04-22T09:10:05.955Z,3.26
2017-04-22T09:11:03.819Z,2.90
2017-04-22T09:12:01.702Z,3.56
2017-04-22T09:12:59.567Z,2.46
2017-04-22T09:13:57.471Z,2.61
2017-04-22T09:14:55.303Z,2.53
2017-04-22T09:15:53.133Z,2.39
2017-04-22T09:16:50.960Z,2.81
2017-04-22T09:17:48.855Z,2.11
2017-04-22T09:18:46.732Z,2.80
2017-04-22T09:19:44.596Z,2.69
2017-04-22T09:20:42.415Z,2.36
2017-04-22T09:21:40.270Z,2.60
2017-04-22T09:22:38.290Z,2.47
2017-04-22T09:23:36.124Z,2.99
2017-04-22T09:24:33.974Z,2.51
2017-04-22T09:25:31.893Z,2.69
2017-04-22T09:26:29.707Z,2.97
2017-04-22T09:27:27.660Z,3.16
2017-04-22T09:28:25.495Z,2.91
2017-04-22T09:29:23.488Z,2.63
2017-04-22T09:30:21.338Z,2.61
2017-04-22T09:31:19.196Z,2.93
2017-04-22T09:32:17.040Z,2.56
2017-04-22T09:33:14.908Z,2.66
2017-04-22T09:34:12.853Z,2.03
2017-04-22T09:35:10.699Z,2.43
2017-04-22T09:36:08.638Z,2.76
2017-04-22T09:37:06.515Z,2.17
2017-04-22T09:38:04.372Z,2.83
2017-04-22T09:39:02.357Z,2.83
2017-04-22T09:40:00.163Z,2.99
2017-04-22T09:40:58.044Z,2.29
2017-04-22T09:41:55.867Z,2.90
2017-04-22T09:42:53.808Z,2.84
2017-04-22T09:43:51.670Z,2.97
2017-04-22T09:44:49.585Z,2.44
2017-04-22T09:45:47.472Z,2.89
2017-04-22T09:46:45.331Z,2.89
2017-04-22T09:47:43.233Z,2.20
2017-04-22T09:48:41.109Z,3.20
2017-04-22T09:49:41.465Z,3.34
2017-04-22T09:50:39.451Z,2.59
2017-04-22T09:51:37.321Z,3.00
2017-04-22T09:52:35.240Z,2.53
2017-04-22T09:53:33.064Z,3.37
2017-04-22T09:54:30.907Z,2.80
2017-04-22T09:55:28.737Z,3.59
2017-04-22T09:56:26.596Z,2.56
2017-04-22T09:57:24.387Z,2.77
2017-04-22T09:58:22.318Z,2.01
2017-04-22T09:59:20.211Z,2.27
2017-04-22T10:00:18.138Z,3.07
2017-04-22T10:01:16.030Z,1.97
2017-04-22T10:02:13.872Z,3.11
2017-04-22T10:03:11.697Z,2.39
2017-04-22T10:04:09.600Z,2.36
2017-04-22T10:05:07.468Z,2.16
2017-04-22T10:06:05.280Z,2.47
2017-04-22T10:07:03.140Z,2.37
2017-04-22T10:08:00.977Z,2.37
2017-04-22T10:08:58.911Z,2.09
2017-04-22T10:09:56.732Z,2.04
2017-04-22T10:10:54.705Z,2.29
2017-04-22T10:11:52.550Z,2.66
2017-04-22T10:12:50.347Z,1.86
2017-04-22T10:13:48.248Z,2.07
2017-04-22T10:14:46.019Z,2.80
2017-04-22T10:15:43.962Z,1.91
2017-04-22T10:16:41.803Z,1.76
2017-04-22T10:17:39.850Z,1.86
2017-04-22T10:18:37.711Z,1.90
2017-04-22T10:19:35.539Z,2.43
2017-04-22T10:20:33.419Z,2.17
2017-04-22T10:21:31.276Z,1.86
2017-04-22T10:22:29.152Z,2.61
2017-04-22T10:23:27.007Z,2.44
2017-04-22T10:24:25.001Z,1.93
2017-04-22T10:25:22.822Z,1.89
2017-04-22T10:26:20.697Z,2.10
2017-04-22T10:27:18.628Z,1.84
2017-04-22T10:28:16.466Z,2.00
2017-04-22T10:29:14.369Z,1.70
2017-04-22T10:30:12.175Z,1.90
2017-04-22T10:31:10.154Z,1.51
2017-04-22T10:32:07.979Z,1.94
2017-04-22T10:33:05.810Z,1.56
2017-04-22T10:34:03.756Z,2.33
2017-04-22T10:35:01.546Z,2.07
2017-04-22T10:35:59.495Z,1.86
2017-04-22T10:36:57.336Z,2.06
2017-04-22T10:37:55.203Z,1.87
2017-04-22T10:38:53.182Z,1.89
2017-04-22T10:39:51.019Z,1.89
2017-04-22T10:40:48.923Z,2.26
2017-04-22T10:41:47.140Z,2.26
2017-04-22T10:42:44.950Z,2.10
2017-04-22T10:43:42.782Z,2.41
2017-04-22T10:44:40.586Z,1.97
2017-04-22T10:45:38.422Z,2.10
2017-04-22T10:46:36.249Z,2.87
2017-04-22T10:47:34.188Z,2.39
2017-04-22T10:48:32.174Z,2.46
2017-04-22T10:49:30.003Z,2.36
2017-04-22T10:50:27.881Z,2.29
2017-04-22T10:51:25.680Z,2.37
2017-04-22T10:52:23.552Z,2.67
2017-04-22T10:53:21.357Z,2.37
2017-04-22T10:54:19.317Z,2.40
2017-04-22T10:55:17.107Z,2.67
2017-04-22T10:56:14.999Z,2.33
2017-04-22T10:57:12.824Z,2.33
2017-04-22T10:58:10.640Z,2.46
2017-04-22T10:59:08.482Z,2.47
2017-04-22T11:00:06.311Z,2.67
2017-04-22T11:01:04.164Z,2.46
2017-04-22T11:02:01.955Z,2.61
2017-04-22T11:02:59.735Z,2.34
2017-04-22T11:03:57.538Z,2.53
2017-04-22T11:04:55.436Z,1.84
2017-04-22T11:05:53.306Z,2.33
2017-04-22T11:06:51.328Z,2.39
2017-04-22T11:07:49.173Z,2.43
2017-04-22T11:08:47.000Z,2.59
2017-04-22T11:09:44.892Z,2.53
2017-04-22T11:10:42.759Z,2.43
2017-04-22T11:11:40.687Z,1.69
2017-04-22T11:12:38.529Z,2.21
2017-04-22T11:13:36.435Z,2.20
2017-04-22T11:14:34.535Z,1.56
2017-04-22T11:15:32.362Z,1.71
2017-04-22T11:16:30.241Z,2.01
2017-04-22T11:17:28.088Z,2.07
2017-04-22T11:18:26.334Z,2.04
2017-04-22T11:19:24.137Z,2.46
2017-04-22T11:20:21.965Z,1.51
2017-04-22T11:21:19.773Z,1.76
2017-04-22T11:22:17.624Z,1.69
2017-04-22T11:23:15.495Z,2.07
2017-04-22T11:24:13.316Z,2.36
2017-04-22T11:25:11.171Z,1.37
2017-04-22T11:26:08.953Z,2.31
2017-04-22T11:27:06.815Z,1.57
2017-04-22T11:28:04.738Z,2.06
2017-04-22T11:29:02.660Z,2.19
2017-04-22T11:30:00.492Z,1.40
2017-04-22T11:30:58.343Z,1.89
2017-04-22T11:31:56.264Z,1.87
2017-04-22T11:32:54.100Z,2.03
2017-04-22T11:33:52.072Z,1.60
2017-04-22T11:34:49.925Z,1.67
2017-04-22T11:35:47.775Z,1.76
2017-04-22T11:36:45.627Z,2.19
2017-04-22T11:37:43.444Z,1.84
2017-04-22T11:38:41.452Z,2.09
2017-04-22T11:39:39.252Z,1.90
2017-04-22T11:40:37.215Z,2.20
2017-04-22T11:41:35.089Z,1.56
2017-04-22T11:42:32.965Z,2.21
2017-04-22T11:43:30.825Z,1.97
2017-04-22T11:44:28.716Z,1.99
2017-04-22T11:45:26.602Z,1.80
2017-04-22T11:46:24.449Z,1.90
2017-04-22T11:47:22.443Z,2.26
2017-04-22T11:48:20.307Z,2.20
2017-04-22T11:49:18.149Z,1.93
2017-04-22T11:50:16.026Z,2.33
2017-04-22T11:51:13.843Z,1.87
2017-04-22T11:52:11.800Z,1.87
2017-04-22T11:53:09.664Z,2.03
2017-04-22T11:54:07.663Z,1.86
2017-04-22T11:55:05.556Z,1.86
2017-04-22T11:56:03.376Z,1.67
2017-04-22T11:57:01.273Z,1.74
2017-04-22T11:57:59.158Z,1.64
2017-04-22T11:58:57.347Z,1.96
2017-04-22T11:59:55.188Z,1.57
2017-04-22T12:00:53.007Z,1.80
2017-04-22T12:01:50.860Z,1.69
2017-04-22T12:02:48.701Z,2.36
2017-04-22T12:03:46.570Z,1.84
2017-04-22T12:04:44.431Z,1.97
2017-04-22T12:05:42.260Z,1.84
2017-04-22T12:06:40.061Z,1.41
2017-04-22T12:07:37.911Z,1.94
2017-04-22T12:08:36.216Z,1.86
2017-04-22T12:09:34.060Z,1.90
2017-04-22T12:10:31.941Z,2.29
2017-04-22T12:11:29.796Z,1.74
2017-04-22T12:12:27.623Z,2.00
2017-04-22T12:13:25.456Z,1.64
2017-04-22T12:14:23.295Z,1.29
2017-04-22T12:15:21.230Z,1.41
2017-04-22T12:16:19.029Z,1.77
2017-04-22T12:17:16.858Z,1.79
2017-04-22T12:18:14.709Z,1.84
2017-04-22T12:19:12.585Z,1.54
2017-04-22T12:20:10.483Z,1.91
2017-04-22T12:21:08.300Z,1.83
2017-04-22T12:22:06.157Z,1.59
2017-04-22T12:23:03.991Z,1.57
2017-04-22T12:24:01.823Z,2.00
2017-04-22T12:24:59.651Z,2.21
2017-04-22T12:25:57.643Z,1.87
2017-04-22T12:26:55.477Z,2.23
2017-04-22T12:27:53.349Z,2.03
2017-04-22T12:28:51.203Z,1.97
2017-04-22T12:29:49.018Z,1.90
2017-04-22T12:30:46.960Z,1.76
2017-04-22T12:31:44.823Z,2.07
2017-04-22T12:32:42.813Z,1.57
2017-04-22T12:33:40.706Z,2.14
2017-04-22T12:34:38.557Z,2.31
2017-04-22T12:35:36.517Z,1.50
2017-04-22T12:36:34.385Z,1.81
2017-04-22T12:37:32.223Z,1.76
2017-04-22T12:38:30.049Z,1.37
2017-04-22T12:39:27.974Z,1.83
2017-04-22T12:40:25.819Z,2.09
2017-04-22T12:41:23.731Z,1.93
2017-04-22T12:42:21.620Z,1.74
2017-04-22T12:43:19.467Z,2.17
2017-04-22T12:44:17.373Z,2.40
2017-04-22T12:45:15.212Z,2.07
2017-04-22T12:46:13.164Z,1.81